Time;durP1;ratioP1;P1;durP2;ratioP2;P2;SDS_P1;SDS_P2;PMS_P1;PMS_P2;Temp;Humidity;BMP_temperature;BMP_pressure;BME280_temperature;BME280_humidity;BME280_pressure;Samples;Min_cycle;Max_cycle;Signal;HPM_P1;HPM_P2
2022/04/04 03:02:14;;;;;;;17.43;15.87;;;-4.00;99.90;;;;;;5108816;23;20261;-75
2022/04/04 03:04:42;;;;;;;17.60;15.90;;;-4.00;99.90;;;;;;4935195;29;20662;-75
2022/04/04 03:07:09;;;;;;;17.47;15.77;;;-4.00;99.90;;;;;;4935724;29;20178;-74
2022/04/04 03:09:37;;;;;;;20.30;18.50;;;-4.00;99.90;;;;;;4936174;29;20696;-74
2022/04/04 03:12:04;;;;;;;21.97;19.70;;;-4.10;99.90;;;;;;4949773;29;20217;-75
2022/04/04 03:14:31;;;;;;;21.50;19.30;;;-4.10;99.90;;;;;;4945248;28;20174;-75
2022/04/04 03:16:57;;;;;;;20.10;18.10;;;-4.20;99.90;;;;;;4955138;23;20238;-74
2022/04/04 03:19:23;;;;;;;19.33;17.53;;;-4.20;99.90;;;;;;4935895;29;20269;-74
2022/04/04 03:21:49;;;;;;;19.80;17.77;;;-4.20;99.90;;;;;;4936805;29;20269;-75
2022/04/04 03:24:14;;;;;;;18.50;16.37;;;-4.20;99.90;;;;;;4936671;29;20213;-74
2022/04/04 03:26:40;;;;;;;20.23;18.40;;;-4.10;99.90;;;;;;4932386;29;20206;-75
2022/04/04 03:29:06;;;;;;;20.47;18.60;;;-4.10;99.90;;;;;;4918114;29;20187;-74
2022/04/04 03:31:32;;;;;;;19.07;17.30;;;-4.10;99.90;;;;;;4924681;29;20196;-74
2022/04/04 03:33:58;;;;;;;20.17;18.17;;;-4.10;99.90;;;;;;4935292;29;20607;-74
2022/04/04 03:36:24;;;;;;;19.93;18.23;;;-4.10;99.90;;;;;;4946575;29;20213;-74
2022/04/04 03:38:49;;;;;;;19.87;17.87;;;-4.10;99.90;;;;;;4930094;29;20183;-74
2022/04/04 03:41:15;;;;;;;22.37;20.33;;;-4.10;99.90;;;;;;4925390;29;20720;-75
2022/04/04 03:43:41;;;;;;;23.03;21.07;;;-4.20;99.90;;;;;;4927754;29;20195;-75
2022/04/04 03:46:07;;;;;;;23.90;21.87;;;-4.20;99.90;;;;;;4931071;29;20207;-74
2022/04/04 03:48:33;;;;;;;25.37;23.07;;;-4.20;99.90;;;;;;4924439;29;20226;-75
2022/04/04 03:50:59;;;;;;;24.60;22.40;;;-4.20;99.90;;;;;;4913862;29;20698;-75
2022/04/04 03:53:25;;;;;;;22.47;20.70;;;-4.30;99.90;;;;;;4900871;29;20279;-75
2022/04/04 03:55:51;;;;;;;20.83;18.90;;;-4.30;99.90;;;;;;4912704;29;20207;-76
2022/04/04 03:58:17;;;;;;;22.70;20.57;;;-4.30;99.90;;;;;;4907793;29;20231;-76
2022/04/04 04:00:42;;;;;;;23.83;21.70;;;-4.20;99.90;;;;;;4915729;29;20179;-76
2022/04/04 04:03:09;;;;;;;21.13;19.43;;;-4.20;99.90;;;;;;4916875;29;20198;-75
2022/04/04 04:05:35;;;;;;;24.77;22.70;;;-4.20;99.90;;;;;;4915483;29;20204;-75
2022/04/04 04:08:01;;;;;;;24.90;22.33;;;-4.20;99.90;;;;;;4915581;29;20197;-75
2022/04/04 04:10:27;;;;;;;25.20;23.00;;;-4.20;99.90;;;;;;4923860;29;20189;-75
2022/04/04 04:12:53;;;;;;;31.03;28.47;;;-4.20;99.90;;;;;;4917692;29;20203;-74
2022/04/04 04:15:23;;;;;;;27.13;24.67;;;-4.20;99.90;;;;;;4915582;29;20691;-75
2022/04/04 04:17:52;;;;;;;24.23;22.13;;;-4.20;99.90;;;;;;4915067;29;20209;-75
2022/04/04 04:20:26;;;;;;;44.90;41.73;;;-4.20;99.90;;;;;;4916605;29;20207;-75
2022/04/04 04:23:05;;;;;;;48.43;44.80;;;-4.20;99.90;;;;;;4931091;29;20237;-75
2022/04/04 04:25:33;;;;;;;52.77;48.77;;;-4.30;99.90;;;;;;4915802;29;20217;-76
2022/04/04 04:28:01;;;;;;;23.63;21.30;;;-4.30;99.90;;;;;;4914783;29;20183;-75
2022/04/04 04:30:28;;;;;;;20.93;18.87;;;-4.30;99.90;;;;;;4916948;29;20187;-75
2022/04/04 04:32:54;;;;;;;25.23;22.97;;;-4.20;99.90;;;;;;4915321;29;20589;-76
2022/04/04 04:35:20;;;;;;;25.63;23.53;;;-4.20;99.90;;;;;;4914448;29;20211;-75
2022/04/04 04:37:47;;;;;;;26.33;24.37;;;-4.20;99.90;;;;;;4915266;29;20190;-76
2022/04/04 04:40:14;;;;;;;25.30;23.23;;;-4.20;99.90;;;;;;4916744;29;20678;-75
2022/04/04 04:42:43;;;;;;;29.00;26.80;;;-4.20;99.90;;;;;;4915590;29;20195;-74
2022/04/04 04:45:10;;;;;;;28.83;26.53;;;-4.20;99.90;;;;;;4917171;29;20198;-75
2022/04/04 04:47:36;;;;;;;28.57;26.40;;;-4.20;99.90;;;;;;4916559;29;20589;-75
2022/04/04 04:50:04;;;;;;;29.07;26.83;;;-4.20;99.90;;;;;;4916589;29;20282;-73
2022/04/04 04:52:30;;;;;;;28.50;26.30;;;-4.20;99.90;;;;;;4914825;29;20701;-73
2022/04/04 04:54:55;;;;;;;33.03;29.70;;;-4.20;99.90;;;;;;4916205;29;20277;-73
2022/04/04 04:57:22;;;;;;;34.13;31.10;;;-4.20;99.90;;;;;;4914557;29;20269;-73
2022/04/04 04:59:48;;;;;;;33.07;30.50;;;-4.20;99.90;;;;;;4915061;29;20225;-73
2022/04/04 05:02:14;;;;;;;32.47;30.10;;;-4.20;99.90;;;;;;4916286;29;20191;-76
2022/04/04 05:04:40;;;;;;;31.97;29.77;;;-4.20;99.90;;;;;;4911520;29;20512;-73
2022/04/04 05:07:09;;;;;;;32.37;29.47;;;-4.20;99.90;;;;;;4900097;29;20298;-73
2022/04/04 05:09:35;;;;;;;32.57;30.07;;;-4.20;99.90;;;;;;4895510;29;20814;-73
2022/04/04 05:12:01;;;;;;;31.50;29.00;;;-4.20;99.90;;;;;;4908646;29;20211;-72
2022/04/04 05:14:27;;;;;;;27.50;25.00;;;-4.20;99.90;;;;;;4915857;29;20187;-73
2022/04/04 05:16:53;;;;;;;27.60;25.43;;;-4.10;99.90;;;;;;4914597;29;20222;-73
2022/04/04 05:19:25;;;;;;;25.83;23.30;;;-4.10;99.90;;;;;;4914398;29;20554;-74
2022/04/04 05:21:54;;;;;;;26.10;22.97;;;-4.00;99.90;;;;;;4915629;29;20597;-75
2022/04/04 05:24:21;;;;;;;22.47;20.43;;;-4.00;99.90;;;;;;4914194;29;20175;-74
2022/04/04 05:26:47;;;;;;;24.97;22.83;;;-3.90;99.90;;;;;;4914556;29;20226;-74
2022/04/04 05:29:15;;;;;;;23.33;21.27;;;-3.90;99.90;;;;;;4914252;29;20187;-74
2022/04/04 05:31:41;;;;;;;23.80;21.50;;;-3.90;99.90;;;;;;4915298;29;20186;-75
2022/04/04 05:34:07;;;;;;;22.00;19.63;;;-3.80;99.90;;;;;;4915339;29;20652;-75
2022/04/04 05:36:33;;;;;;;19.23;17.23;;;-3.80;99.90;;;;;;4915478;29;20215;-74
2022/04/04 05:38:59;;;;;;;16.83;13.80;;;-3.70;99.90;;;;;;4917087;29;20182;-74
2022/04/04 05:41:27;;;;;;;17.07;15.20;;;-3.70;99.90;;;;;;4916022;29;20179;-75
2022/04/04 05:43:54;;;;;;;19.17;17.20;;;-3.50;99.90;;;;;;4914492;29;20209;-75
2022/04/04 05:46:19;;;;;;;25.97;23.63;;;-3.40;99.90;;;;;;4914964;29;20213;-74
2022/04/04 05:48:46;;;;;;;27.23;24.80;;;-3.10;99.90;;;;;;4915138;29;20550;-77
2022/04/04 05:51:15;;;;;;;25.93;23.13;;;-2.70;99.90;;;;;;4914830;29;20187;-75
2022/04/04 05:53:41;;;;;;;18.53;16.80;;;-2.20;99.90;;;;;;4914182;29;20221;-75
2022/04/04 05:56:07;;;;;;;15.90;14.20;;;-1.70;99.90;;;;;;4915239;29;20206;-75
2022/04/04 05:58:32;;;;;;;16.97;15.10;;;-1.30;99.90;;;;;;4914500;29;20179;-75
2022/04/04 06:00:58;;;;;;;15.70;14.10;;;-0.90;99.90;;;;;;4914008;29;20207;-75
2022/04/04 06:03:24;;;;;;;17.20;15.33;;;-0.60;99.90;;;;;;4915366;29;20202;-75
2022/04/04 06:05:51;;;;;;;16.40;14.67;;;-0.60;99.90;;;;;;4913946;29;20215;-75
2022/04/04 06:08:17;;;;;;;18.93;16.50;;;-0.70;99.90;;;;;;4913436;29;20182;-74
2022/04/04 06:10:46;;;;;;;15.77;14.07;;;-0.60;99.90;;;;;;4913832;29;20678;-74
2022/04/04 06:13:16;;;;;;;15.33;13.17;;;-0.60;99.90;;;;;;4913399;29;20215;-74
2022/04/04 06:15:45;;;;;;;18.07;14.33;;;-0.50;99.90;;;;;;4914333;29;20222;-74
2022/04/04 06:18:12;;;;;;;14.93;13.33;;;-0.20;99.90;;;;;;4914041;29;20183;-74
2022/04/04 06:20:39;;;;;;;21.83;19.87;;;0.40;99.90;;;;;;4914554;29;20275;-73
2022/04/04 06:23:06;;;;;;;17.40;14.37;;;1.00;99.90;;;;;;4915730;29;20186;-74
2022/04/04 06:25:32;;;;;;;15.27;13.70;;;1.50;99.90;;;;;;4914332;29;20238;-74
2022/04/04 06:27:58;;;;;;;15.97;13.17;;;1.90;99.90;;;;;;4915279;29;20182;-72
2022/04/04 06:30:25;;;;;;;16.37;13.27;;;2.40;99.90;;;;;;4900720;29;20205;-73
2022/04/04 06:32:51;;;;;;;14.13;12.10;;;2.60;99.90;;;;;;4894848;29;20216;-73
2022/04/04 06:35:18;;;;;;;15.23;13.13;;;2.80;99.90;;;;;;4902762;29;20214;-72
2022/04/04 06:37:45;;;;;;;14.57;13.07;;;3.30;99.90;;;;;;4914008;29;20655;-72
2022/04/04 06:40:13;;;;;;;15.37;12.70;;;3.80;99.90;;;;;;4913444;29;20206;-73
2022/04/04 06:42:42;;;;;;;13.90;12.50;;;3.80;99.90;;;;;;4918794;29;20536;-73
2022/04/04 06:45:09;;;;;;;13.40;12.17;;;4.10;99.90;;;;;;4916987;29;20194;-72
2022/04/04 06:47:37;;;;;;;16.27;13.17;;;4.60;99.90;;;;;;4921540;29;20217;-72
2022/04/04 06:50:04;;;;;;;16.23;14.63;;;4.80;99.90;;;;;;4922431;29;20191;-72
2022/04/04 06:52:30;;;;;;;14.20;12.80;;;4.90;99.90;;;;;;4920998;29;20249;-73
2022/04/04 06:54:56;;;;;;;14.03;12.60;;;5.00;99.90;;;;;;4921422;29;20199;-71
2022/04/04 06:57:26;;;;;;;14.17;12.67;;;5.00;99.90;;;;;;4912375;29;20199;-71
2022/04/04 06:59:51;;;;;;;11.73;10.63;;;5.30;99.90;;;;;;4899486;29;20191;-72
2022/04/04 07:02:18;;;;;;;13.20;11.93;;;5.50;99.90;;;;;;4916504;29;20711;-72
2022/04/04 07:04:44;;;;;;;12.60;10.97;;;5.70;99.90;;;;;;4916595;29;20250;-72
2022/04/04 07:07:10;;;;;;;11.90;11.00;;;6.00;99.90;;;;;;4917305;29;20203;-72
2022/04/04 07:09:36;;;;;;;13.60;12.40;;;6.00;99.90;;;;;;4917806;29;20227;-72
2022/04/04 07:12:03;;;;;;;14.03;12.83;;;6.20;99.90;;;;;;4917290;29;20206;-72
2022/04/04 07:14:29;;;;;;;11.80;10.70;;;6.00;99.90;;;;;;4917560;29;20183;-71
2022/04/04 07:16:55;;;;;;;10.77;9.67;;;6.00;99.90;;;;;;4914594;29;20225;-72
2022/04/04 07:19:23;;;;;;;10.93;9.93;;;6.10;99.90;;;;;;4914951;29;20182;-72
2022/04/04 07:21:52;;;;;;;11.60;10.40;;;6.10;99.90;;;;;;4916498;29;20674;-72
2022/04/04 07:24:19;;;;;;;13.30;10.80;;;6.20;99.90;;;;;;4917498;29;20187;-72
2022/04/04 07:26:48;;;;;;;11.47;10.27;;;6.40;99.90;;;;;;4916208;29;20199;-71
2022/04/04 07:29:15;;;;;;;10.63;9.57;;;6.80;99.90;;;;;;4916573;29;20191;-72
2022/04/04 07:31:42;;;;;;;10.10;9.20;;;6.80;99.90;;;;;;4917476;29;20193;-74
2022/04/04 07:34:12;;;;;;;10.40;9.50;;;7.10;99.90;;;;;;4916174;29;20201;-72
2022/04/04 07:36:40;;;;;;;10.90;10.00;;;7.40;99.90;;;;;;4916137;29;20589;-71
2022/04/04 07:39:06;;;;;;;10.33;9.33;;;7.60;98.60;;;;;;4916995;29;20275;-71
2022/04/04 07:41:32;;;;;;;10.37;9.50;;;7.60;98.20;;;;;;4916645;29;20242;-72
2022/04/04 07:43:58;;;;;;;9.73;8.93;;;7.40;96.80;;;;;;4917451;29;20679;-73
2022/04/04 07:46:24;;;;;;;10.27;9.27;;;7.20;97.00;;;;;;4916368;29;20290;-72
2022/04/04 07:48:54;;;;;;;10.50;9.60;;;7.20;97.40;;;;;;4916608;29;20191;-73
2022/04/04 07:51:20;;;;;;;10.00;9.10;;;7.20;96.80;;;;;;4915681;29;20274;-73
2022/04/04 07:53:46;;;;;;;10.60;9.60;;;7.30;97.80;;;;;;4917861;29;20245;-73
2022/04/04 07:56:12;;;;;;;11.40;9.70;;;7.40;95.60;;;;;;4917574;29;20242;-72
2022/04/04 07:58:40;;;;;;;10.33;9.47;;;7.50;96.40;;;;;;4916069;29;20179;-71
2022/04/04 08:01:05;;;;;;;9.87;9.07;;;7.60;96.60;;;;;;4913310;29;20208;-73
2022/04/04 08:03:31;;;;;;;10.10;9.10;;;7.60;96.10;;;;;;4904182;29;20202;-71
2022/04/04 08:05:57;;;;;;;9.67;8.87;;;7.80;96.70;;;;;;4897906;29;20646;-73
2022/04/04 08:08:24;;;;;;;10.67;9.47;;;7.70;96.20;;;;;;4908109;29;20232;-71
2022/04/04 08:10:50;;;;;;;10.73;9.03;;;7.80;95.40;;;;;;4917935;29;20187;-72
2022/04/04 08:13:16;;;;;;;10.33;9.43;;;7.90;95.60;;;;;;4918020;29;20212;-74
2022/04/04 08:15:42;;;;;;;10.10;9.10;;;7.90;95.70;;;;;;4916873;29;20211;-72
2022/04/04 08:18:08;;;;;;;10.30;9.47;;;7.90;95.40;;;;;;4916404;29;20640;-72
2022/04/04 08:20:34;;;;;;;10.40;9.40;;;8.10;95.60;;;;;;4917308;29;20197;-71
2022/04/04 08:23:00;;;;;;;9.80;8.90;;;8.20;94.50;;;;;;4917706;29;20182;-71
2022/04/04 08:25:26;;;;;;;9.03;8.27;;;7.90;93.80;;;;;;4915408;29;20207;-72
2022/04/04 08:27:51;;;;;;;9.53;8.73;;;7.80;92.80;;;;;;4915534;29;20183;-72
2022/04/04 08:30:18;;;;;;;9.60;8.77;;;8.00;93.70;;;;;;4917103;29;20234;-74
2022/04/04 08:32:44;;;;;;;9.73;8.90;;;8.00;92.70;;;;;;4916864;29;20309;-72
2022/04/04 08:35:15;;;;;;;9.60;8.63;;;8.20;92.70;;;;;;4915469;29;20191;-74
2022/04/04 08:37:43;;;;;;;9.93;8.83;;;8.30;91.70;;;;;;4915502;29;20898;-71
2022/04/04 08:40:11;;;;;;;9.70;8.80;;;8.40;91.70;;;;;;4916696;29;20233;-72
2022/04/04 08:42:38;;;;;;;9.37;8.57;;;8.70;91.50;;;;;;4916260;29;20282;-72
2022/04/04 08:45:05;;;;;;;9.63;8.67;;;8.80;87.10;;;;;;4916319;29;20742;-72
2022/04/04 08:47:33;;;;;;;10.53;8.97;;;9.10;90.10;;;;;;4914806;29;20210;-73
2022/04/04 08:50:00;;;;;;;9.60;8.77;;;9.30;87.60;;;;;;4915792;29;20214;-73
2022/04/04 08:52:27;;;;;;;10.03;9.17;;;9.00;84.70;;;;;;4916267;29;20211;-73
2022/04/04 08:54:53;;;;;;;10.57;9.60;;;8.40;84.00;;;;;;4916074;29;20264;-73
2022/04/04 08:57:19;;;;;;;10.00;9.10;;;8.40;85.90;;;;;;4914763;29;20270;-73
2022/04/04 08:59:45;;;;;;;9.80;9.00;;;8.40;88.40;;;;;;4916562;29;20618;-72
2022/04/04 09:02:12;;;;;;;10.70;9.60;;;8.90;88.50;;;;;;4915075;29;20218;-72
2022/04/04 09:04:40;;;;;;;11.30;10.30;;;9.20;81.40;;;;;;4916250;29;20278;-72
2022/04/04 09:07:11;;;;;;;10.40;9.50;;;9.60;83.10;;;;;;4914532;29;20640;-73
2022/04/04 09:09:45;;;;;;;10.10;9.20;;;9.40;82.60;;;;;;4915973;29;20658;-73
2022/04/04 09:12:16;;;;;;;10.10;9.30;;;9.10;81.20;;;;;;4915873;29;20580;-73
2022/04/04 09:14:48;;;;;;;10.93;8.80;;;9.40;81.10;;;;;;4914839;29;20182;-73
2022/04/04 09:17:17;;;;;;;10.10;9.30;;;9.50;81.80;;;;;;4965952;23;20241;-79
2022/04/04 09:19:43;;;;;;;9.50;8.57;;;9.10;74.50;;;;;;4954472;29;20233;-79
2022/04/04 09:22:14;;;;;;;10.83;9.87;;;8.90;77.50;;;;;;4954966;28;20182;-79
2022/04/04 09:24:48;;;;;;;9.73;8.93;;;8.70;77.20;;;;;;4955427;28;20615;-80
2022/04/04 09:27:22;;;;;;;9.43;8.40;;;8.90;76.50;;;;;;4953708;28;20203;-79
2022/04/04 09:29:59;;;;;;;9.40;8.60;;;8.80;75.60;;;;;;4951568;28;20216;-79
2022/04/04 09:32:37;;;;;;;9.67;8.77;;;9.10;78.20;;;;;;4954316;28;20740;-79
2022/04/04 09:35:14;;;;;;;9.47;8.67;;;9.00;77.80;;;;;;4968401;29;20259;-79
2022/04/04 09:37:43;;;;;;;10.07;9.37;;;9.30;75.30;;;;;;4959771;28;20201;-79
2022/04/04 09:40:21;;;;;;;10.33;9.33;;;9.50;71.70;;;;;;4951423;28;20196;-78
2022/04/04 09:42:51;;;;;;;10.03;9.23;;;10.10;74.00;;;;;;4960557;28;20626;-79
2022/04/04 09:45:17;;;;;;;10.43;9.63;;;10.20;70.60;;;;;;4953683;29;20213;-79
2022/04/04 09:47:55;;;;;;;11.07;10.27;;;10.60;73.20;;;;;;4960509;28;20200;-79
2022/04/04 09:50:36;;;;;;;10.57;9.67;;;10.60;71.20;;;;;;4954731;29;20197;-80
2022/04/04 09:53:04;;;;;;;11.03;10.13;;;11.30;70.90;;;;;;4953872;28;20201;-79
2022/04/04 09:55:32;;;;;;;9.80;8.80;;;10.70;65.70;;;;;;4952128;29;20689;-78
2022/04/04 09:58:00;;;;;;;9.27;8.47;;;10.00;65.60;;;;;;4955411;29;20188;-79
2022/04/04 10:00:27;;;;;;;8.37;7.80;;;9.70;66.20;;;;;;4957487;28;20174;-79
2022/04/04 10:02:58;;;;;;;9.60;8.90;;;10.20;64.10;;;;;;4957022;29;20185;-79
2022/04/04 10:05:27;;;;;;;8.60;7.93;;;10.60;64.80;;;;;;4947118;29;20197;-79
2022/04/04 10:07:56;;;;;;;7.90;7.30;;;10.30;63.00;;;;;;4941751;29;20298;-79
2022/04/04 10:10:26;;;;;;;9.37;8.57;;;9.90;61.20;;;;;;4936639;29;20203;-78
2022/04/04 10:12:53;;;;;;;9.57;7.90;;;10.00;63.10;;;;;;4934221;29;20242;-77
2022/04/04 10:15:21;;;;;;;9.17;8.47;;;9.80;64.00;;;;;;4937147;29;20697;-78
2022/04/04 10:17:49;;;;;;;9.27;8.37;;;10.00;64.20;;;;;;4935876;29;20689;-78
2022/04/04 10:20:15;;;;;;;7.93;7.30;;;10.10;62.90;;;;;;4937996;28;20201;-77
2022/04/04 10:22:41;;;;;;;7.93;7.37;;;9.90;62.70;;;;;;4936559;29;20182;-78
2022/04/04 10:25:07;;;;;;;8.77;7.33;;;9.90;62.30;;;;;;4937685;28;20182;-78
2022/04/04 10:27:35;;;;;;;7.57;7.07;;;10.30;60.20;;;;;;4936037;29;20210;-78
2022/04/04 10:30:06;;;;;;;7.63;7.03;;;10.70;62.70;;;;;;4936284;29;20617;-77
2022/04/04 10:32:33;;;;;;;7.80;7.20;;;11.00;60.10;;;;;;4937261;28;20236;-78
2022/04/04 10:35:10;;;;;;;7.90;7.20;;;10.80;59.30;;;;;;4936166;29;20281;-78
2022/04/04 10:37:43;;;;;;;8.53;7.83;;;11.10;62.40;;;;;;4935854;29;20205;-77
2022/04/04 10:40:20;;;;;;;7.97;7.37;;;11.00;58.10;;;;;;4936222;29;20700;-77
2022/04/04 10:42:48;;;;;;;7.37;6.87;;;11.10;58.70;;;;;;4937232;29;20650;-77
2022/04/04 10:45:15;;;;;;;7.73;7.20;;;11.00;58.10;;;;;;4935974;29;20209;-77
2022/04/04 10:47:43;;;;;;;7.97;7.37;;;11.10;60.30;;;;;;4935991;29;20702;-78
2022/04/04 10:50:30;;;;;;;7.57;6.97;;;11.50;58.10;;;;;;4937211;29;20241;-78
2022/04/04 10:53:00;;;;;;;9.23;7.80;;;11.30;57.80;;;;;;4937266;28;20206;-77
2022/04/04 10:55:48;;;;;;;7.40;6.90;;;11.30;58.70;;;;;;4936154;29;20194;-78
2022/04/04 10:58:17;;;;;;;7.43;6.83;;;11.80;57.30;;;;;;4935447;29;20213;-77
2022/04/04 11:01:18;;;;;;;7.43;6.90;;;12.10;56.00;;;;;;4935588;29;20210;-77
2022/04/04 11:04:00;;;;;;;7.53;7.03;;;12.20;56.10;;;;;;4927100;29;20674;-77
2022/04/04 11:09:33;;;;;;;7.87;7.17;;;12.00;56.50;;;;;;4936751;29;20190;-78
2022/04/04 11:11:58;;;;;;;10.43;7.60;;;12.20;57.30;;;;;;4936453;29;20229;-78
2022/04/04 11:14:27;;;;;;;7.97;7.43;;;12.80;57.80;;;;;;4936982;28;20604;-78
2022/04/04 11:17:23;;;;;;;8.50;7.80;;;12.90;55.30;;;;;;4942689;28;20198;-78
2022/04/04 11:20:14;;;;;;;9.23;8.53;;;13.40;58.40;;;;;;4947786;28;20198;-77
2022/04/04 11:22:46;;;;;;;9.30;8.60;;;13.50;55.80;;;;;;4937377;28;20233;-77
2022/04/04 11:25:17;;;;;;;8.17;7.63;;;12.20;56.40;;;;;;4935204;29;20185;-77
2022/04/04 11:27:48;;;;;;;8.10;7.40;;;11.90;58.00;;;;;;4936101;28;20233;-77
2022/04/04 11:30:20;;;;;;;8.27;7.47;;;12.00;59.60;;;;;;4935345;29;20185;-78
2022/04/04 11:32:49;;;;;;;8.40;7.63;;;12.00;60.20;;;;;;4934983;29;20276;-78
2022/04/04 11:35:25;;;;;;;8.50;7.87;;;12.50;59.70;;;;;;4935112;29;20577;-78
2022/04/04 11:37:55;;;;;;;8.97;8.20;;;13.00;57.90;;;;;;4935806;28;20189;-78
2022/04/04 11:40:25;;;;;;;8.87;8.17;;;13.00;56.90;;;;;;4936202;29;20191;-79
2022/04/04 11:42:52;;;;;;;9.80;8.90;;;13.20;56.60;;;;;;4935018;29;20218;-78
2022/04/04 11:45:23;;;;;;;9.27;8.53;;;12.90;56.10;;;;;;4935758;28;20178;-78
2022/04/04 11:48:05;;;;;;;9.90;9.17;;;13.50;56.40;;;;;;4934597;29;20186;-79
2022/04/04 11:50:37;;;;;;;9.50;8.80;;;13.70;54.40;;;;;;4934179;28;20201;-79
2022/04/04 11:53:14;;;;;;;10.57;9.50;;;13.30;55.10;;;;;;4936279;29;20213;-77
2022/04/04 11:55:44;;;;;;;9.43;8.60;;;13.10;56.70;;;;;;4934616;29;20344;-78
2022/04/04 11:58:15;;;;;;;9.20;8.50;;;12.80;56.60;;;;;;4935040;29;20341;-77
2022/04/04 12:00:53;;;;;;;10.13;9.13;;;13.30;55.80;;;;;;4934325;29;20183;-78
2022/04/04 12:03:19;;;;;;;9.10;8.30;;;13.70;55.70;;;;;;4950188;29;20213;-77
2022/04/04 12:05:47;;;;;;;8.40;7.60;;;14.20;55.40;;;;;;4935283;29;20239;-77
2022/04/04 12:08:15;;;;;;;9.40;8.67;;;14.40;54.10;;;;;;4943112;29;20232;-78
2022/04/04 12:10:42;;;;;;;9.10;8.40;;;14.00;55.10;;;;;;4953603;29;20213;-77
2022/04/04 12:13:12;;;;;;;8.97;8.27;;;13.30;55.80;;;;;;4954398;28;20333;-77
2022/04/04 12:15:42;;;;;;;8.77;8.07;;;13.90;56.60;;;;;;4954942;29;20210;-79
2022/04/04 12:18:09;;;;;;;8.67;7.87;;;14.50;54.80;;;;;;4956243;28;20199;-80
2022/04/04 12:20:46;;;;;;;10.63;7.97;;;14.70;54.20;;;;;;4955331;28;20189;-74
2022/04/04 12:26:04;;;;;;;7.83;7.03;;;15.20;52.30;;;;;;4954769;29;20209;-69
2022/04/04 12:28:35;;;;;;;8.03;7.43;;;15.70;51.00;;;;;;4954165;28;20757;-72
2022/04/04 12:31:21;;;;;;;8.67;7.97;;;15.10;52.20;;;;;;4953398;29;20267;-71
2022/04/04 12:34:00;;;;;;;8.27;7.57;;;13.90;55.40;;;;;;4954205;28;20194;-71
2022/04/04 12:36:39;;;;;;;8.13;7.53;;;14.10;56.10;;;;;;4953383;28;20228;-71
2022/04/04 12:39:16;;;;;;;8.77;7.60;;;14.00;56.50;;;;;;4953677;28;20193;-71
2022/04/04 12:41:43;;;;;;;8.60;7.90;;;15.20;55.50;;;;;;4946966;28;20256;-72
2022/04/04 12:44:10;;;;;;;8.07;7.37;;;15.10;54.20;;;;;;4932079;29;20253;-71
2022/04/04 12:46:36;;;;;;;8.20;7.70;;;15.50;55.20;;;;;;4932377;29;20202;-71
2022/04/04 12:49:20;;;;;;;7.97;7.47;;;15.40;56.60;;;;;;4934581;29;20182;-71
2022/04/04 12:51:56;;;;;;;8.60;8.00;;;15.80;56.80;;;;;;4935206;29;20653;-73
2022/04/04 12:54:34;;;;;;;12.83;11.23;;;15.60;54.80;;;;;;4935175;29;20178;-72
2022/04/04 12:57:03;;;;;;;17.77;15.77;;;15.40;56.10;;;;;;4945428;29;20206;-73
2022/04/04 12:59:29;;;;;;;11.37;10.37;;;15.50;55.20;;;;;;4954292;28;20192;-73
2022/04/04 13:02:04;;;;;;;9.30;8.60;;;16.00;54.40;;;;;;4962036;28;20177;-71
2022/04/04 13:04:30;;;;;;;9.60;8.80;;;16.10;55.80;;;;;;4958046;29;20188;-72
2022/04/04 13:06:57;;;;;;;7.80;7.10;;;15.60;53.40;;;;;;4953337;28;20201;-75
2022/04/04 13:09:25;;;;;;;7.87;7.23;;;15.30;55.00;;;;;;4953732;28;20197;-71
2022/04/04 13:11:52;;;;;;;7.33;6.83;;;15.80;53.10;;;;;;4948803;28;20186;-71
2022/04/04 13:14:18;;;;;;;8.53;7.73;;;14.70;53.70;;;;;;4945688;28;20186;-70
2022/04/04 13:17:04;;;;;;;8.47;7.90;;;14.40;55.20;;;;;;4951704;29;20217;-70
2022/04/04 13:19:29;;;;;;;8.67;7.70;;;14.40;55.60;;;;;;4953560;28;20561;-70
2022/04/04 13:21:55;;;;;;;8.97;7.93;;;14.40;54.40;;;;;;4953193;29;20272;-71
2022/04/04 13:24:23;;;;;;;8.23;7.53;;;13.60;54.90;;;;;;4953543;28;20796;-72
2022/04/04 13:26:50;;;;;;;9.30;8.47;;;13.00;56.70;;;;;;4952825;29;20236;-70
2022/04/04 13:29:18;;;;;;;8.40;7.77;;;13.60;57.20;;;;;;4953299;28;20177;-69
2022/04/04 13:31:44;;;;;;;8.80;8.07;;;13.50;55.80;;;;;;4953104;28;20192;-71
2022/04/04 13:34:12;;;;;;;7.93;7.33;;;13.80;56.50;;;;;;4952092;29;20193;-71
2022/04/04 13:36:38;;;;;;;9.03;8.23;;;14.30;55.10;;;;;;4953248;28;20225;-71
2022/04/04 13:39:09;;;;;;;8.30;7.63;;;14.50;55.10;;;;;;4953188;28;20192;-71
2022/04/04 13:41:37;;;;;;;9.10;8.37;;;14.30;55.60;;;;;;4951819;29;20193;-70
2022/04/04 13:44:04;;;;;;;8.90;8.20;;;14.20;55.70;;;;;;4953018;29;20210;-70
2022/04/04 13:46:31;;;;;;;8.77;7.93;;;14.60;56.00;;;;;;4953138;28;20205;-70
2022/04/04 13:48:58;;;;;;;9.40;8.57;;;14.40;54.00;;;;;;4951248;28;20285;-70
2022/04/04 13:51:26;;;;;;;9.40;8.70;;;14.60;54.80;;;;;;4951731;29;20182;-70
2022/04/04 13:53:57;;;;;;;9.63;8.93;;;14.10;54.40;;;;;;4952657;28;20642;-70
2022/04/04 13:56:25;;;;;;;10.17;9.27;;;14.60;54.80;;;;;;4951651;29;20213;-71
2022/04/04 13:58:53;;;;;;;9.10;8.40;;;14.70;55.10;;;;;;4952759;28;20189;-70
2022/04/04 14:01:21;;;;;;;9.50;8.70;;;14.30;53.80;;;;;;4951736;29;20554;-70
2022/04/04 14:03:47;;;;;;;9.07;8.17;;;13.60;55.20;;;;;;4952398;29;20213;-77
2022/04/04 14:06:14;;;;;;;9.13;8.53;;;13.70;56.00;;;;;;4949898;28;20696;-78
2022/04/04 14:08:41;;;;;;;9.47;8.57;;;13.30;56.00;;;;;;4933375;29;20223;-78
2022/04/04 14:11:08;;;;;;;8.60;7.90;;;12.80;56.00;;;;;;4934669;29;20213;-77
2022/04/04 14:13:35;;;;;;;8.83;8.07;;;12.20;57.70;;;;;;4934206;29;20182;-77
2022/04/04 14:16:02;;;;;;;8.73;7.90;;;11.80;59.20;;;;;;4936995;29;20229;-76
2022/04/04 14:18:27;;;;;;;12.47;8.47;;;11.60;60.70;;;;;;4933808;28;20186;-77
2022/04/04 14:20:53;;;;;;;8.13;7.03;;;12.60;58.90;;;;;;4933987;28;20207;-77
2022/04/04 14:23:19;;;;;;;8.73;7.97;;;13.20;57.00;;;;;;4932761;29;20749;-77
2022/04/04 14:25:45;;;;;;;8.67;7.97;;;12.90;57.10;;;;;;4934570;29;20205;-77
2022/04/04 14:28:10;;;;;;;8.63;7.93;;;13.30;56.20;;;;;;4935593;28;20178;-77
2022/04/04 14:30:36;;;;;;;9.23;8.43;;;14.60;54.60;;;;;;4934029;28;20772;-77
2022/04/04 14:33:02;;;;;;;8.77;8.07;;;14.50;52.30;;;;;;4932742;29;20194;-76
2022/04/04 14:35:28;;;;;;;9.43;8.63;;;13.60;54.20;;;;;;4932386;29;20608;-77
2022/04/04 14:37:54;;;;;;;12.67;11.37;;;12.30;55.70;;;;;;4938304;28;20186;-77
2022/04/04 14:40:20;;;;;;;8.60;7.90;;;11.30;58.30;;;;;;4952213;29;20174;-79
2022/04/04 14:42:46;;;;;;;8.53;7.83;;;10.90;60.00;;;;;;4947216;29;20206;-78
2022/04/04 14:45:12;;;;;;;8.10;7.40;;;11.00;61.20;;;;;;4945591;28;20187;-78
2022/04/04 14:47:38;;;;;;;8.97;8.17;;;12.40;59.20;;;;;;4941321;29;20214;-78
2022/04/04 14:50:07;;;;;;;8.33;7.63;;;13.90;56.30;;;;;;4945996;29;20185;-78
2022/04/04 14:52:35;;;;;;;8.57;7.87;;;14.60;55.20;;;;;;4953308;29;20186;-77
2022/04/04 14:55:02;;;;;;;8.33;7.73;;;14.90;52.80;;;;;;4945679;29;20214;-78
2022/04/04 14:57:28;;;;;;;8.13;7.53;;;14.40;53.60;;;;;;4936419;29;20209;-77
2022/04/04 14:59:53;;;;;;;8.80;7.90;;;14.00;53.60;;;;;;4935927;29;20190;-77
2022/04/04 15:02:19;;;;;;;9.30;8.60;;;13.80;55.40;;;;;;4939291;29;20237;-77
2022/04/04 15:04:45;;;;;;;8.70;7.87;;;14.50;55.20;;;;;;4943388;29;20194;-76
2022/04/04 15:07:13;;;;;;;9.10;8.47;;;14.90;53.30;;;;;;4938854;28;20209;-77
2022/04/04 15:09:40;;;;;;;8.90;8.20;;;14.20;53.40;;;;;;4936351;29;20186;-77
2022/04/04 15:12:08;;;;;;;8.40;7.70;;;13.10;56.00;;;;;;4935972;29;20209;-76
2022/04/04 15:14:35;;;;;;;8.63;8.03;;;13.50;56.40;;;;;;4938357;28;20228;-78
2022/04/04 15:17:03;;;;;;;8.30;7.60;;;13.80;55.70;;;;;;4950438;23;20234;-76
2022/04/04 15:19:30;;;;;;;8.70;8.00;;;13.10;57.00;;;;;;4936617;29;20227;-78
2022/04/04 15:21:55;;;;;;;8.63;7.93;;;12.30;58.50;;;;;;4936703;29;20182;-76
2022/04/04 15:24:21;;;;;;;9.00;8.20;;;11.70;59.30;;;;;;4936602;29;20198;-76
2022/04/04 15:26:47;;;;;;;8.90;8.20;;;11.30;61.30;;;;;;4935021;29;20283;-76
2022/04/04 15:29:14;;;;;;;8.83;7.93;;;10.90;62.30;;;;;;4936513;29;20567;-76
2022/04/04 15:31:39;;;;;;;10.07;9.10;;;10.70;63.10;;;;;;4934238;29;20608;-76
2022/04/04 15:34:05;;;;;;;8.97;8.20;;;10.50;64.00;;;;;;4936439;29;20191;-76
2022/04/04 15:36:39;;;;;;;9.40;8.70;;;10.20;63.30;;;;;;4935055;29;20309;-76
2022/04/04 15:39:07;;;;;;;9.20;8.43;;;9.90;64.10;;;;;;4924406;29;20202;-76
2022/04/04 15:41:33;;;;;;;9.00;8.33;;;9.80;65.90;;;;;;4938746;29;20204;-76
2022/04/04 15:44:03;;;;;;;8.83;8.13;;;9.80;66.40;;;;;;4941190;29;20316;-76
2022/04/04 15:46:31;;;;;;;8.57;7.73;;;9.80;66.50;;;;;;4937564;29;20211;-76
2022/04/04 15:48:57;;;;;;;9.70;8.00;;;9.70;66.70;;;;;;4936222;29;20187;-77
2022/04/04 15:51:24;;;;;;;9.03;8.23;;;9.70;66.00;;;;;;4935369;29;20647;-76
2022/04/04 15:53:51;;;;;;;9.30;8.40;;;9.50;64.90;;;;;;4935517;29;20186;-76